Airfield :
LOGIN :

Register | Disclaimer

   EN    FR    IT 

 










Legend :    VFR   Marginal VFR   IFR   Intensive IFR   Very Intensive IFR
Visi :
Ceiling :
>= 8 km
>= 3000ft
5 to 8 km
1000 to 3000 ft
1500m to 5 km
500 to 1000 ft
800 to 1500m
200 to 500 ft
< 800m
< 200 ft
Symbols :   Thunderstorms  Fog  Heavy snow  Heavy precipitations  Wind > 20 kt
SIGMETs :     Misc.  Thunderstorms  Icing  Turbulence  Mountain Waves  Volcanic Ashes







- Airport Elevation : 157 ft
- IATA code : LIL
- Download approach charts


LFQQ - Lille Lesquin

CURRENT METAR :
  • 210100Z AUTO 16010KT CAVOK 11/08 Q1010 NOSIG

EXPIRED METARs :
  • 210030Z AUTO 16010KT CAVOK 11/08 Q1010 NOSIG
  • 210000Z AUTO 15007KT CAVOK 10/07 Q1011 NOSIG
  • 202330Z AUTO 16008KT CAVOK 11/08 Q1011 NOSIG
  • 202300Z AUTO 16009KT CAVOK 11/08 Q1011 NOSIG
  • 202230Z AUTO 17009KT CAVOK 11/08 Q1011 NOSIG

TAF TAF LFQQ
Valid from the 21 at 00:00 until the 22 at 06:00 UTC


202300Z 2100/2206 18012KT 9999 SCT040
TEMPO 2103/2107 17017G27KT 4000 RA BKN013
BECMG 2109/2111 21020G33KT
TEMPO 2113/2118 4000 SHRA BKN030CB
PROB40
TEMPO 2113/2118 2000 TSRA BKN020CB
TEMPO 2123/2205 2000 SHRA BKN008 BKN015CB
BECMG 2204/2206 23013KT
ATIS : +33 3 20 16 19 54
No reported NOTAMs for that airfield.
1 SIGMET reported for the Paris FIR (LFFF) :
 
Severe turbulence
LFFF SIGMET 5 VALID 202300/210300 LFPW
LFFF PARIS FIR/UIR SEV TURB FCST WI N4845 W00015 - N5000 W00015 - N5100 E00145 - N4945 E00145 SFC/FL060 MOV E 25KT NC=



MET'MAP, your aeronautical weather chart ! - Copyright ORBIFLY December 2007 - Disclaimer

ORBIFLY MET'MAP TEAM :

Programming & Development : Alexandra Zaïnal
Concept & Development : Baudouin d'Aumeries
Co-Development & Prog : Marc-Olivier Méhu
Technical & hardware support : Manuel Goepfert

Contact : metmap@orbifly.com




SOURCES & CREDITS :

   NOAA